createdAt,value
2018-03-30T00:02:21.919Z,83.55
2018-03-30T00:04:47.992Z,83.28
2018-03-30T00:07:13.985Z,82.82
2018-03-30T00:09:52.223Z,82.70
2018-03-30T00:12:18.268Z,82.82
2018-03-30T00:14:44.296Z,84.28
2018-03-30T00:17:10.405Z,85.20
2018-03-30T00:19:36.522Z,84.97
2018-03-30T00:22:02.511Z,83.96
2018-03-30T00:24:28.545Z,83.14
2018-03-30T00:26:54.781Z,83.02
2018-03-30T00:29:20.825Z,82.44
2018-03-30T00:31:46.892Z,83.69
2018-03-30T00:34:12.937Z,85.15
2018-03-30T00:36:38.984Z,84.02
2018-03-30T00:39:04.989Z,84.05
2018-03-30T00:41:31.103Z,83.46
2018-03-30T00:43:57.138Z,83.63
2018-03-30T00:46:23.213Z,83.82
2018-03-30T00:48:49.213Z,83.46
2018-03-30T00:51:15.285Z,83.09
2018-03-30T00:53:46.262Z,82.60
2018-03-30T00:56:12.270Z,82.03
2018-03-30T00:58:38.389Z,83.43
2018-03-30T01:01:04.470Z,85.36
2018-03-30T01:03:30.509Z,85.25
2018-03-30T01:05:56.521Z,84.33
2018-03-30T01:08:22.584Z,83.72
2018-03-30T01:10:48.645Z,82.77
2018-03-30T01:13:14.644Z,82.92
2018-03-30T01:15:40.734Z,82.63
2018-03-30T01:18:06.817Z,81.90
2018-03-30T01:20:32.848Z,81.96
2018-03-30T01:22:58.909Z,83.76
2018-03-30T01:25:25.014Z,84.21
2018-03-30T01:27:50.982Z,83.60
2018-03-30T01:30:17.699Z,83.33
2018-03-30T01:32:43.826Z,84.04
2018-03-30T01:35:09.863Z,84.03
2018-03-30T01:37:35.888Z,85.22
2018-03-30T01:40:01.933Z,85.26
2018-03-30T01:42:27.998Z,86.09
2018-03-30T01:44:54.034Z,85.38
2018-03-30T01:47:20.077Z,84.56
2018-03-30T01:49:46.122Z,83.89
2018-03-30T01:52:12.242Z,83.48
2018-03-30T01:54:38.298Z,83.49
2018-03-30T01:57:04.434Z,83.57
2018-03-30T01:59:30.418Z,82.92
2018-03-30T02:01:56.446Z,82.41
2018-03-30T02:04:22.418Z,82.43
2018-03-30T02:06:48.481Z,82.57
2018-03-30T02:09:14.509Z,82.93
2018-03-30T02:11:40.533Z,85.01
2018-03-30T02:14:06.573Z,85.43
2018-03-30T02:16:32.564Z,85.31
2018-03-30T02:18:58.594Z,85.65
2018-03-30T02:21:24.626Z,85.52
2018-03-30T02:23:50.613Z,84.63
2018-03-30T02:26:16.653Z,84.65
2018-03-30T02:28:42.661Z,84.23
2018-03-30T02:31:08.687Z,83.89
2018-03-30T02:33:34.694Z,84.32
2018-03-30T02:36:00.730Z,83.78
2018-03-30T02:38:26.812Z,83.79
2018-03-30T02:40:52.916Z,83.02
2018-03-30T02:43:18.950Z,82.98
2018-03-30T02:45:44.949Z,83.62
2018-03-30T02:48:11.108Z,84.68
2018-03-30T02:50:37.113Z,85.12
2018-03-30T02:53:03.139Z,86.12
2018-03-30T02:55:29.265Z,85.65
2018-03-30T02:57:55.363Z,85.46
2018-03-30T03:00:21.430Z,85.40
2018-03-30T03:02:48.890Z,85.51
2018-03-30T03:05:14.961Z,86.17
2018-03-30T03:07:41.007Z,85.05
2018-03-30T03:10:07.069Z,84.53
2018-03-30T03:12:33.110Z,84.42
2018-03-30T03:14:59.189Z,83.68
2018-03-30T03:17:25.219Z,83.55
2018-03-30T03:19:51.286Z,83.50
2018-03-30T03:22:17.340Z,83.37
2018-03-30T03:24:43.355Z,83.54
2018-03-30T03:27:09.404Z,83.53
2018-03-30T03:29:35.458Z,82.74
2018-03-30T03:32:01.514Z,82.44
2018-03-30T03:34:27.564Z,82.95
2018-03-30T03:36:53.622Z,82.34
2018-03-30T03:39:19.596Z,83.07
2018-03-30T03:41:45.621Z,82.99
2018-03-30T03:44:11.696Z,82.60
2018-03-30T03:46:37.802Z,82.67
2018-03-30T03:49:03.885Z,82.44
2018-03-30T03:51:29.976Z,83.35
2018-03-30T03:53:55.992Z,83.58
2018-03-30T03:56:21.957Z,83.40
2018-03-30T03:58:48.021Z,83.20
2018-03-30T04:01:14.134Z,83.20
2018-03-30T04:03:40.159Z,83.41
2018-03-30T04:06:06.188Z,84.00
2018-03-30T04:08:32.213Z,83.55
2018-03-30T04:10:58.217Z,83.42
2018-03-30T04:13:24.244Z,83.35
2018-03-30T04:15:50.298Z,83.38
2018-03-30T04:18:16.645Z,83.32
2018-03-30T04:20:42.689Z,83.53
2018-03-30T04:23:08.720Z,84.58
2018-03-30T04:25:34.826Z,83.70
2018-03-30T04:28:00.821Z,84.28
2018-03-30T04:30:26.894Z,83.76
2018-03-30T04:32:52.945Z,83.78
2018-03-30T04:35:18.994Z,84.39
2018-03-30T04:37:45.013Z,84.14
2018-03-30T04:40:11.035Z,84.76
2018-03-30T04:42:37.085Z,84.27
2018-03-30T04:45:04.434Z,84.14
2018-03-30T04:47:30.476Z,84.60
2018-03-30T04:49:56.517Z,84.50
2018-03-30T04:52:22.557Z,84.68
2018-03-30T04:54:48.604Z,84.90
2018-03-30T04:57:14.690Z,84.38
2018-03-30T04:59:40.689Z,85.55
2018-03-30T05:02:06.765Z,85.76
2018-03-30T05:04:32.813Z,86.22
2018-03-30T05:06:58.846Z,86.24
2018-03-30T05:09:24.949Z,86.59
2018-03-30T05:11:50.999Z,86.35
2018-03-30T05:14:17.014Z,86.02
2018-03-30T05:16:43.076Z,86.19
2018-03-30T05:19:09.121Z,86.18
2018-03-30T05:21:35.182Z,85.54
2018-03-30T05:24:01.254Z,85.24
2018-03-30T05:26:27.288Z,84.72
2018-03-30T05:28:53.305Z,84.96
2018-03-30T05:31:19.322Z,84.89
2018-03-30T05:33:45.402Z,84.29
2018-03-30T05:36:11.433Z,84.34
2018-03-30T05:38:37.473Z,84.77
2018-03-30T05:41:03.479Z,85.31
2018-03-30T05:43:29.623Z,83.84
2018-03-30T05:45:55.646Z,83.34
2018-03-30T05:48:21.723Z,83.99
2018-03-30T05:50:47.672Z,83.22
2018-03-30T05:53:13.769Z,83.00
2018-03-30T05:55:39.813Z,82.88
2018-03-30T05:58:05.848Z,87.51
2018-03-30T06:00:31.924Z,84.96
2018-03-30T06:02:58.047Z,83.49
2018-03-30T06:05:24.082Z,83.31
2018-03-30T06:07:50.110Z,83.13
2018-03-30T06:10:16.162Z,83.02
2018-03-30T06:12:42.210Z,82.51
2018-03-30T06:15:08.277Z,83.17
2018-03-30T06:17:34.317Z,83.94
2018-03-30T06:20:00.357Z,84.65
2018-03-30T06:22:26.456Z,85.24
2018-03-30T06:24:52.533Z,85.38
2018-03-30T06:27:18.554Z,84.81
2018-03-30T06:29:44.623Z,84.61
2018-03-30T06:32:10.737Z,84.57
2018-03-30T06:34:36.746Z,84.26
2018-03-30T06:37:02.804Z,83.83
2018-03-30T06:39:28.838Z,83.76
2018-03-30T06:41:54.922Z,82.67
2018-03-30T06:44:20.931Z,82.51
2018-03-30T06:46:46.985Z,81.85
2018-03-30T06:49:13.001Z,81.23
2018-03-30T06:51:39.032Z,81.12
2018-03-30T06:54:06.101Z,80.23
2018-03-30T06:56:32.157Z,80.47
2018-03-30T06:58:58.217Z,80.08
2018-03-30T07:01:24.229Z,79.53
2018-03-30T07:03:50.338Z,78.96
2018-03-30T07:06:16.361Z,78.95
2018-03-30T07:08:42.345Z,78.02
2018-03-30T07:11:08.437Z,77.64
2018-03-30T07:13:34.489Z,76.63
2018-03-30T07:16:00.573Z,76.76
2018-03-30T07:18:26.710Z,75.81
2018-03-30T07:20:52.800Z,76.20
2018-03-30T07:23:18.806Z,76.31
2018-03-30T07:25:44.888Z,77.09
2018-03-30T07:28:10.908Z,77.64
2018-03-30T07:30:36.969Z,77.87
2018-03-30T07:33:03.020Z,78.13
2018-03-30T07:35:29.081Z,78.79
2018-03-30T07:37:55.125Z,79.19
2018-03-30T07:40:21.090Z,78.76
2018-03-30T07:42:47.117Z,78.56
2018-03-30T07:45:13.129Z,77.83
2018-03-30T07:47:39.154Z,77.60
2018-03-30T07:50:05.187Z,77.14
2018-03-30T07:52:31.350Z,76.47
2018-03-30T07:54:57.403Z,75.37
2018-03-30T07:57:23.418Z,74.65
2018-03-30T07:59:49.494Z,73.72
2018-03-30T08:02:15.509Z,72.29
2018-03-30T08:04:41.561Z,72.56
2018-03-30T08:07:07.763Z,71.37
2018-03-30T08:09:33.817Z,71.54
2018-03-30T08:11:59.864Z,72.27
2018-03-30T08:14:25.934Z,71.77
2018-03-30T08:16:51.965Z,70.56
2018-03-30T08:19:17.974Z,69.22
2018-03-30T08:21:44.050Z,68.86
2018-03-30T08:24:10.082Z,68.99
2018-03-30T08:26:36.057Z,68.49
2018-03-30T08:29:02.040Z,67.44
2018-03-30T08:31:28.073Z,66.55
2018-03-30T08:33:54.138Z,66.26
2018-03-30T08:36:20.155Z,66.76
2018-03-30T08:38:46.200Z,66.19
2018-03-30T08:41:12.283Z,65.65
2018-03-30T08:43:38.448Z,64.40
2018-03-30T08:46:04.480Z,63.80
2018-03-30T08:48:30.521Z,63.82
2018-03-30T08:50:56.507Z,62.58
2018-03-30T08:53:22.575Z,62.56
2018-03-30T08:55:48.645Z,62.21
2018-03-30T08:58:14.686Z,62.87
2018-03-30T09:00:40.717Z,62.40
2018-03-30T09:03:06.734Z,61.31
2018-03-30T09:05:32.765Z,61.93
2018-03-30T09:07:58.816Z,60.82
2018-03-30T09:10:24.889Z,60.13
2018-03-30T09:12:50.934Z,60.18
2018-03-30T09:15:17.037Z,60.64
2018-03-30T09:17:43.169Z,60.04
2018-03-30T09:20:09.282Z,59.82
2018-03-30T09:22:35.447Z,59.80
2018-03-30T09:25:01.485Z,58.97
2018-03-30T09:27:27.481Z,59.67
2018-03-30T09:29:53.530Z,59.15
2018-03-30T09:32:19.606Z,58.61
2018-03-30T09:34:45.640Z,58.27
2018-03-30T09:37:11.694Z,58.18
2018-03-30T09:39:37.753Z,58.10
2018-03-30T09:42:03.851Z,57.58
2018-03-30T09:44:29.835Z,57.50
2018-03-30T09:46:55.864Z,58.11
2018-03-30T09:49:21.907Z,57.99
2018-03-30T09:51:47.969Z,57.21
2018-03-30T09:54:14.032Z,56.91
2018-03-30T09:56:40.382Z,56.34
2018-03-30T09:59:06.446Z,56.11
2018-03-30T10:01:32.653Z,56.05
2018-03-30T10:03:58.717Z,56.37
2018-03-30T10:06:24.772Z,56.31
2018-03-30T10:08:50.861Z,56.54
2018-03-30T10:11:16.889Z,55.90
2018-03-30T10:13:42.907Z,55.83
2018-03-30T10:16:08.997Z,54.89
2018-03-30T10:18:35.036Z,54.57
2018-03-30T10:21:01.130Z,54.17
2018-03-30T10:23:27.190Z,54.83
2018-03-30T10:25:53.280Z,53.79
2018-03-30T10:28:19.406Z,53.13
2018-03-30T10:30:45.466Z,53.72
2018-03-30T10:33:11.531Z,52.66
2018-03-30T10:35:37.597Z,52.94
2018-03-30T10:38:03.734Z,52.15
2018-03-30T10:40:29.782Z,53.15
2018-03-30T10:42:55.869Z,52.03
2018-03-30T10:45:23.290Z,51.16
2018-03-30T10:47:49.384Z,50.90
2018-03-30T10:50:15.490Z,52.06
2018-03-30T10:52:41.599Z,50.28
2018-03-30T10:55:07.674Z,48.69
2018-03-30T10:57:33.768Z,48.88
2018-03-30T11:00:00.279Z,49.13
2018-03-30T11:02:26.414Z,47.41
2018-03-30T11:04:52.496Z,46.70
2018-03-30T11:07:18.490Z,46.91
2018-03-30T11:09:44.602Z,45.29
2018-03-30T11:12:10.640Z,45.05
2018-03-30T11:14:36.731Z,45.73
2018-03-30T11:17:02.825Z,42.60
2018-03-30T11:19:28.829Z,40.31
2018-03-30T11:21:54.875Z,41.39
2018-03-30T11:24:21.040Z,41.31
2018-03-30T11:26:47.097Z,40.83
2018-03-30T11:29:13.165Z,40.54
2018-03-30T11:31:39.268Z,40.52
2018-03-30T11:34:05.332Z,41.07
2018-03-30T11:36:31.389Z,41.05
2018-03-30T11:38:57.496Z,40.91
2018-03-30T11:41:23.521Z,39.66
2018-03-30T11:43:49.904Z,40.18
2018-03-30T11:46:15.929Z,40.27
2018-03-30T11:48:41.970Z,40.56
2018-03-30T11:51:08.033Z,40.21
2018-03-30T11:53:34.114Z,40.43
2018-03-30T11:56:00.165Z,40.10
2018-03-30T11:58:26.293Z,39.72
2018-03-30T12:00:52.378Z,40.35
2018-03-30T12:03:18.408Z,40.22
2018-03-30T12:05:44.455Z,38.20
2018-03-30T12:08:10.566Z,39.17
2018-03-30T12:10:36.611Z,38.45
2018-03-30T12:13:03.633Z,39.75
2018-03-30T12:15:29.683Z,39.99
2018-03-30T12:17:55.765Z,39.69
2018-03-30T12:20:21.864Z,39.48
2018-03-30T12:22:47.902Z,38.87
2018-03-30T12:25:13.946Z,38.25
2018-03-30T12:27:40.006Z,38.76
2018-03-30T12:30:06.045Z,39.47
2018-03-30T12:32:32.070Z,39.15
2018-03-30T12:34:58.064Z,38.95
2018-03-30T12:37:24.029Z,38.41
2018-03-30T12:39:50.062Z,37.16
2018-03-30T12:42:16.058Z,36.82
2018-03-30T12:44:42.139Z,36.54
2018-03-30T12:47:08.199Z,37.09
2018-03-30T12:49:34.486Z,37.60
2018-03-30T12:52:00.577Z,36.56
2018-03-30T12:54:26.917Z,37.15
2018-03-30T12:56:52.949Z,36.22
2018-03-30T12:59:18.996Z,35.51
2018-03-30T13:01:45.021Z,35.58
2018-03-30T13:04:11.084Z,35.37
2018-03-30T13:06:37.137Z,35.31
2018-03-30T13:09:03.199Z,35.97
2018-03-30T13:11:29.265Z,35.49
2018-03-30T13:13:55.374Z,35.72
2018-03-30T13:16:21.505Z,34.38
2018-03-30T13:18:47.551Z,34.09
2018-03-30T13:21:13.660Z,34.41
2018-03-30T13:23:39.713Z,34.54
2018-03-30T13:26:05.745Z,34.43
2018-03-30T13:28:31.813Z,33.99
2018-03-30T13:30:57.868Z,34.56
2018-03-30T13:33:23.964Z,34.02
2018-03-30T13:35:50.203Z,33.56
2018-03-30T13:38:16.253Z,34.17
2018-03-30T13:40:42.336Z,34.77
2018-03-30T13:43:08.357Z,35.35
2018-03-30T13:45:34.395Z,35.83
2018-03-30T13:48:00.422Z,35.28
2018-03-30T13:50:27.237Z,35.54
2018-03-30T13:53:12.161Z,35.42
2018-03-30T13:55:41.159Z,37.05
2018-03-30T13:58:15.148Z,37.78
2018-03-30T14:00:42.969Z,37.04
2018-03-30T14:03:08.953Z,37.54
2018-03-30T14:05:59.980Z,38.12
2018-03-30T14:08:26.009Z,38.70
2018-03-30T14:10:59.117Z,39.17
2018-03-30T14:13:25.169Z,37.44
2018-03-30T14:15:54.040Z,36.69
2018-03-30T14:18:33.877Z,36.83
2018-03-30T14:21:10.707Z,37.30
2018-03-30T14:23:49.428Z,37.54
2018-03-30T14:26:21.071Z,36.95
2018-03-30T14:28:47.859Z,36.64
2018-03-30T14:34:16.038Z,35.51
2018-03-30T14:36:44.842Z,33.94
2018-03-30T14:39:25.720Z,31.83
2018-03-30T14:41:51.664Z,31.57
2018-03-30T14:44:18.677Z,32.19
2018-03-30T14:47:01.353Z,32.04
2018-03-30T14:49:47.117Z,33.40
2018-03-30T14:52:16.025Z,33.37
2018-03-30T14:54:51.110Z,33.99
2018-03-30T14:57:17.926Z,34.82
2018-03-30T14:59:48.861Z,35.65
2018-03-30T15:02:24.753Z,36.09
2018-03-30T15:05:07.467Z,35.39
2018-03-30T15:07:35.381Z,34.15
2018-03-30T15:13:07.356Z,34.88
2018-03-30T15:15:51.720Z,35.84
2018-03-30T15:18:26.722Z,35.90
2018-03-30T15:21:01.734Z,35.82
2018-03-30T15:23:29.345Z,36.76
2018-03-30T15:26:07.005Z,35.72
2018-03-30T15:28:34.919Z,34.94
2018-03-30T15:31:06.836Z,33.59
2018-03-30T15:33:51.526Z,33.12
2018-03-30T15:36:22.324Z,33.73
2018-03-30T15:38:48.346Z,32.14
2018-03-30T15:41:14.325Z,33.51
2018-03-30T15:43:40.309Z,35.47
2018-03-30T15:46:12.135Z,36.45
2018-03-30T15:48:38.197Z,39.26
2018-03-30T15:51:07.226Z,39.93
2018-03-30T15:53:33.025Z,39.89
2018-03-30T15:55:59.014Z,40.45
2018-03-30T15:58:25.019Z,40.30
2018-03-30T16:00:50.974Z,41.08
2018-03-30T16:03:16.987Z,42.06
2018-03-30T16:05:43.017Z,42.30
2018-03-30T16:08:09.079Z,42.63
2018-03-30T16:10:49.069Z,43.53
2018-03-30T16:13:15.139Z,43.66
2018-03-30T16:15:41.317Z,43.54
2018-03-30T16:18:07.319Z,43.37
2018-03-30T16:20:33.217Z,43.45
2018-03-30T16:22:58.945Z,44.31
2018-03-30T16:25:24.707Z,44.42
2018-03-30T16:27:50.474Z,44.44
2018-03-30T16:30:16.270Z,44.48
2018-03-30T16:32:42.042Z,44.89
2018-03-30T16:35:07.861Z,45.25
2018-03-30T16:37:33.571Z,45.36
2018-03-30T16:39:59.340Z,45.26
2018-03-30T16:42:25.195Z,45.19
2018-03-30T16:44:50.939Z,45.43
2018-03-30T16:47:16.695Z,45.24
2018-03-30T16:49:43.461Z,45.46
2018-03-30T16:52:09.252Z,45.76
2018-03-30T16:54:34.974Z,45.76
2018-03-30T16:57:00.790Z,45.81
2018-03-30T16:59:26.633Z,46.21
2018-03-30T17:01:52.401Z,46.50
2018-03-30T17:04:18.229Z,46.40
2018-03-30T17:06:43.979Z,47.06
2018-03-30T17:09:09.751Z,47.07
2018-03-30T17:11:35.514Z,47.82
2018-03-30T17:14:01.321Z,48.46
2018-03-30T17:16:27.203Z,48.61
2018-03-30T17:18:53.036Z,48.92
2018-03-30T17:21:18.747Z,49.37
2018-03-30T17:23:44.601Z,49.61
2018-03-30T17:26:10.364Z,49.67
2018-03-30T17:28:36.120Z,50.20
2018-03-30T17:31:01.961Z,50.20
2018-03-30T17:33:27.898Z,50.53
2018-03-30T17:35:53.688Z,50.92
2018-03-30T17:38:19.475Z,50.98
2018-03-30T17:40:45.320Z,51.38
2018-03-30T17:43:11.073Z,51.93
2018-03-30T17:45:36.863Z,52.28
2018-03-30T17:48:02.583Z,52.69
2018-03-30T17:50:28.338Z,53.02
2018-03-30T17:52:54.298Z,53.60
2018-03-30T17:55:20.050Z,54.04
2018-03-30T17:57:45.830Z,54.42
2018-03-30T18:00:11.631Z,54.95
2018-03-30T18:02:37.416Z,55.64
2018-03-30T18:05:03.504Z,56.29
2018-03-30T18:07:29.297Z,56.72
2018-03-30T18:09:55.041Z,57.11
2018-03-30T18:12:20.793Z,56.90
2018-03-30T18:14:46.551Z,57.43
2018-03-30T18:17:12.616Z,57.42
2018-03-30T18:19:38.384Z,57.83
2018-03-30T18:22:04.162Z,58.07
2018-03-30T18:24:29.913Z,58.54
2018-03-30T18:26:55.729Z,58.90
2018-03-30T18:29:21.516Z,58.87
2018-03-30T18:31:47.404Z,59.42
2018-03-30T18:34:13.204Z,59.72
2018-03-30T18:36:38.962Z,59.67
2018-03-30T18:39:04.747Z,59.89
2018-03-30T18:41:30.571Z,60.25
2018-03-30T18:43:56.461Z,60.58
2018-03-30T18:46:22.305Z,61.03
2018-03-30T18:48:48.077Z,61.41
2018-03-30T18:51:14.021Z,61.44
2018-03-30T18:53:39.736Z,61.69
2018-03-30T18:56:05.606Z,61.57
2018-03-30T18:58:31.358Z,61.99
2018-03-30T19:00:57.053Z,62.14
2018-03-30T19:03:22.908Z,62.28
2018-03-30T19:05:48.706Z,62.72
2018-03-30T19:08:14.540Z,62.94
2018-03-30T19:10:40.299Z,63.15
2018-03-30T19:13:06.024Z,63.56
2018-03-30T19:15:31.782Z,63.74
2018-03-30T19:17:57.923Z,64.25
2018-03-30T19:20:23.662Z,64.57
2018-03-30T19:22:49.455Z,64.72
2018-03-30T19:25:15.260Z,64.91
2018-03-30T19:27:41.066Z,65.19
2018-03-30T19:30:06.862Z,65.16
2018-03-30T19:32:32.637Z,65.10
2018-03-30T19:34:58.406Z,65.47
2018-03-30T19:37:24.141Z,65.16
2018-03-30T19:39:49.943Z,65.69
2018-03-30T19:42:15.765Z,66.22
2018-03-30T19:44:41.969Z,66.27
2018-03-30T19:47:08.225Z,66.58
2018-03-30T19:49:34.005Z,66.38
2018-03-30T19:51:59.839Z,66.83
2018-03-30T19:54:25.679Z,67.25
2018-03-30T19:56:51.517Z,67.21
2018-03-30T19:59:17.293Z,67.65
2018-03-30T20:01:43.072Z,67.67
2018-03-30T20:04:08.818Z,67.38
2018-03-30T20:06:34.668Z,67.90
2018-03-30T20:09:00.405Z,68.29
2018-03-30T20:11:26.240Z,67.96
2018-03-30T20:13:51.978Z,68.13
2018-03-30T20:16:17.853Z,68.05
2018-03-30T20:18:43.672Z,68.41
2018-03-30T20:21:09.428Z,68.36
2018-03-30T20:23:35.197Z,68.66
2018-03-30T20:26:01.009Z,69.05
2018-03-30T20:28:26.860Z,69.47
2018-03-30T20:30:52.642Z,69.57
2018-03-30T20:33:18.406Z,69.73
2018-03-30T20:35:44.260Z,69.97
2018-03-30T20:38:09.995Z,69.94
2018-03-30T20:40:35.763Z,69.99
2018-03-30T20:43:01.558Z,70.09
2018-03-30T20:45:27.314Z,70.33
2018-03-30T20:47:53.062Z,70.61
2018-03-30T20:50:18.860Z,70.47
2018-03-30T20:52:44.614Z,70.55
2018-03-30T20:55:10.395Z,70.77
2018-03-30T20:57:36.165Z,70.63
2018-03-30T21:00:01.962Z,71.04
2018-03-30T21:02:27.713Z,71.27
2018-03-30T21:04:53.564Z,71.10
2018-03-30T21:07:19.321Z,71.39
2018-03-30T21:09:45.056Z,71.46
2018-03-30T21:12:10.821Z,71.56
2018-03-30T21:14:36.633Z,71.90
2018-03-30T21:17:02.373Z,71.92
2018-03-30T21:19:28.118Z,72.18
2018-03-30T21:21:53.877Z,72.29
2018-03-30T21:24:19.915Z,72.21
2018-03-30T21:26:45.747Z,72.35
2018-03-30T21:29:11.553Z,72.46
2018-03-30T21:31:37.363Z,72.48
2018-03-30T21:34:03.139Z,72.30
2018-03-30T21:36:28.882Z,72.49
2018-03-30T21:38:54.714Z,72.46
2018-03-30T21:41:20.477Z,72.44
2018-03-30T21:43:46.258Z,72.72
2018-03-30T21:46:12.005Z,72.92
2018-03-30T21:48:37.770Z,73.05
2018-03-30T21:51:03.590Z,72.92
2018-03-30T21:53:29.323Z,73.11
2018-03-30T21:55:55.086Z,73.19
2018-03-30T21:58:20.854Z,73.13
2018-03-30T22:00:46.750Z,73.47
2018-03-30T22:03:12.492Z,73.62
2018-03-30T22:05:38.277Z,73.92
2018-03-30T22:08:04.010Z,74.11
2018-03-30T22:10:29.758Z,74.45
2018-03-30T22:12:55.502Z,74.28
2018-03-30T22:15:21.218Z,74.50
2018-03-30T22:17:47.070Z,74.49
2018-03-30T22:20:12.802Z,74.76
2018-03-30T22:22:38.535Z,74.80
2018-03-30T22:25:04.267Z,74.87
2018-03-30T22:27:30.010Z,75.09
2018-03-30T22:29:55.746Z,75.48
2018-03-30T22:32:21.571Z,75.55
2018-03-30T22:34:47.318Z,75.74
2018-03-30T22:37:13.055Z,75.68
2018-03-30T22:39:38.797Z,76.04
2018-03-30T22:42:04.546Z,76.15
2018-03-30T22:44:30.348Z,76.04
2018-03-30T22:46:56.073Z,75.85
2018-03-30T22:49:21.929Z,75.93
2018-03-30T22:51:47.722Z,76.17
2018-03-30T22:54:13.473Z,76.24
2018-03-30T22:56:39.236Z,76.63
2018-03-30T22:59:04.977Z,76.83
2018-03-30T23:01:30.761Z,76.47
2018-03-30T23:03:56.489Z,76.49
2018-03-30T23:06:22.332Z,76.49
2018-03-30T23:08:48.101Z,76.02
2018-03-30T23:11:13.898Z,76.35
2018-03-30T23:13:39.697Z,76.48
2018-03-30T23:16:05.494Z,76.86
2018-03-30T23:18:31.271Z,77.08
2018-03-30T23:20:57.048Z,76.72
2018-03-30T23:23:22.776Z,77.22
2018-03-30T23:25:48.593Z,76.91
2018-03-30T23:28:14.393Z,77.08
2018-03-30T23:30:40.270Z,77.24
2018-03-30T23:33:06.050Z,77.29
2018-03-30T23:35:31.838Z,77.67
2018-03-30T23:37:57.592Z,77.97
2018-03-30T23:40:23.381Z,78.21
2018-03-30T23:42:49.117Z,78.12
2018-03-30T23:45:15.052Z,78.85
2018-03-30T23:47:40.797Z,78.66
2018-03-30T23:50:06.536Z,78.50
2018-03-30T23:52:32.315Z,78.63
2018-03-30T23:54:58.111Z,78.40
2018-03-30T23:57:23.853Z,78.51
2018-03-30T23:59:49.653Z,78.38
